Hobart Ellerslie Road, Tasmania

5:01 PM AEDT on February 07, 2016 (GMT +1100)
inland, home. | | Change Station
CLOSE
Current Station
Personal Weather Station
Location: Hobart, TASMANIA
Elevation: 85 ft
Nearby Weather Stations

Elev 85 ft 42.88 °S, 147.32 °E | Updated 14 seconds ago

Partly Cloudy
Partly Cloudy
76.6 °F
Feels Like 78 °F
N
9.2
Wind Variable Wind from NE
Gusts 13.0 mph

Today
High -- | Low -- °F
--% Chance of Precip.
Yesterday
High -- | Low -- °F
Precip. -- in
Pressure 30.01 in
Visibility 6.2 miles
Clouds Few 3500 ft
Heat Index 78 °F
Dew Point 59 °F
Humidity 54%
Rainfall 0.00 in
Snow Depth Not available.
6:19 AM 8:29 PM
Waning Crescent, 2% visible
METAR YMHB 070530Z 16010KT 9999 FEW035 23/15 Q1016
Pressure 30.01 in
Visibility 6.2 miles
Clouds Few 3500 ft
Heat Index 78 °F
Dew Point 59 °F
Humidity 54%
Rainfall 0.00 in
Snow Depth Not available.
6:19 AM 8:29 PM
Waning Crescent, 2% visible
METAR YMHB 070530Z 16010KT 9999 FEW035 23/15 Q1016

10-Day Weather Forecast

Almanac

Astronomy

Feb. 07, 2016 Rise Set
Actual Time
Civil Twilight
Nautical Twilight
Astronomical Twilight
Moon
Length of Visible Light
Length of Day
Tomorrow will be .
, % of the Moon is Illuminated

Today's Extremes

Country Highs Country Lows

Community

WunderPhotos

Upload Photos

1,891,172 photos uploaded!

WunderBlog® & News

Nearby

Air Quality

  Air Quality AQ Index Pollutant
Not available.

Snow Depth

Station Depth Elevation

Earthquake Activity

City Distance Mag. Time & Date
Minimum magnitude displayed is 2.5.

Coastal Water Temperatures

Place Temperature

Stations

Nearby Weather Stations

Station Location Temp. Windchill Dew Point Humidity Wind Precip. Elev Updated Type